sensor_id;sensor_type;location;lat;lon;timestamp;pressure;altitude;pressure_sealevel;temperature;humidity
68654;BME280;55636;51.108;13.622;2022-12-29T00:01:00;99721.88;;;8.55;50.46
68654;BME280;55636;51.108;13.622;2022-12-29T00:02:03;99711.72;;;8.56;50.54
68654;BME280;55636;51.108;13.622;2022-12-29T00:03:05;99723.28;;;8.58;50.56
68654;BME280;55636;51.108;13.622;2022-12-29T00:04:11;99713.09;;;8.59;50.52
68654;BME280;55636;51.108;13.622;2022-12-29T00:05:16;99712.00;;;8.60;50.45
68654;BME280;55636;51.108;13.622;2022-12-29T00:06:18;99708.16;;;8.61;50.56
68654;BME280;55636;51.108;13.622;2022-12-29T00:07:20;99720.56;;;8.63;50.52
68654;BME280;55636;51.108;13.622;2022-12-29T00:08:23;99713.16;;;8.64;50.56
68654;BME280;55636;51.108;13.622;2022-12-29T00:09:41;99707.38;;;8.65;50.67
68654;BME280;55636;51.108;13.622;2022-12-29T00:10:44;99718.13;;;8.67;50.50
68654;BME280;55636;51.108;13.622;2022-12-29T00:11:46;99718.94;;;8.67;50.48
68654;BME280;55636;51.108;13.622;2022-12-29T00:12:48;99721.69;;;8.67;50.45
68654;BME280;55636;51.108;13.622;2022-12-29T00:14:20;99717.59;;;8.70;50.46
68654;BME280;55636;51.108;13.622;2022-12-29T00:15:41;99733.88;;;8.71;50.46
68654;BME280;55636;51.108;13.622;2022-12-29T00:16:44;99714.59;;;8.71;50.35
68654;BME280;55636;51.108;13.622;2022-12-29T00:17:47;99704.13;;;8.74;50.30
68654;BME280;55636;51.108;13.622;2022-12-29T00:18:49;99704.94;;;8.74;50.37
68654;BME280;55636;51.108;13.622;2022-12-29T00:19:51;99698.38;;;8.75;50.51
68654;BME280;55636;51.108;13.622;2022-12-29T00:21:14;99685.47;;;8.76;50.48
68654;BME280;55636;51.108;13.622;2022-12-29T00:22:35;99683.25;;;8.78;50.44
68654;BME280;55636;51.108;13.622;2022-12-29T00:23:55;99687.66;;;8.79;50.56
68654;BME280;55636;51.108;13.622;2022-12-29T00:25:31;99672.53;;;8.81;50.62
68654;BME280;55636;51.108;13.622;2022-12-29T00:26:55;99666.22;;;8.81;50.40
68654;BME280;55636;51.108;13.622;2022-12-29T00:28:18;99664.28;;;8.81;50.47
68654;BME280;55636;51.108;13.622;2022-12-29T00:29:39;99671.44;;;8.82;50.23
68654;BME280;55636;51.108;13.622;2022-12-29T00:31:00;99677.25;;;8.86;50.58
68654;BME280;55636;51.108;13.622;2022-12-29T00:32:21;99675.31;;;8.86;50.22
68654;BME280;55636;51.108;13.622;2022-12-29T00:33:42;99676.72;;;8.89;50.27
68654;BME280;55636;51.108;13.622;2022-12-29T00:35:03;99675.63;;;8.90;50.26
68654;BME280;55636;51.108;13.622;2022-12-29T00:37:17;99670.66;;;8.92;50.06
68654;BME280;55636;51.108;13.622;2022-12-29T00:38:42;99681.44;;;8.94;50.10
68654;BME280;55636;51.108;13.622;2022-12-29T00:40:06;99693.00;;;8.96;50.19
68654;BME280;55636;51.108;13.622;2022-12-29T00:41:27;99676.22;;;8.97;50.29
68654;BME280;55636;51.108;13.622;2022-12-29T00:42:47;99680.94;;;9.02;50.30
68654;BME280;55636;51.108;13.622;2022-12-29T00:44:19;99688.09;;;9.03;50.33
68654;BME280;55636;51.108;13.622;2022-12-29T00:45:21;99680.66;;;9.03;50.37
68654;BME280;55636;51.108;13.622;2022-12-29T00:46:23;99664.94;;;9.04;50.30
68654;BME280;55636;51.108;13.622;2022-12-29T00:47:26;99666.63;;;9.05;50.42
68654;BME280;55636;51.108;13.622;2022-12-29T00:48:28;99669.94;;;9.07;50.65
68654;BME280;55636;51.108;13.622;2022-12-29T00:49:49;99672.44;;;9.09;50.83
68654;BME280;55636;51.108;13.622;2022-12-29T00:50:55;99674.09;;;9.10;50.77
68654;BME280;55636;51.108;13.622;2022-12-29T00:52:02;99663.06;;;9.10;50.75
68654;BME280;55636;51.108;13.622;2022-12-29T00:53:05;99655.63;;;9.10;50.79
68654;BME280;55636;51.108;13.622;2022-12-29T00:54:08;99675.47;;;9.12;50.74
68654;BME280;55636;51.108;13.622;2022-12-29T00:55:10;99659.75;;;9.13;50.84
68654;BME280;55636;51.108;13.622;2022-12-29T00:56:12;99665.84;;;9.15;50.84
68654;BME280;55636;51.108;13.622;2022-12-29T00:57:15;99666.66;;;9.15;50.79
68654;BME280;55636;51.108;13.622;2022-12-29T00:58:21;99663.63;;;9.17;50.78
68654;BME280;55636;51.108;13.622;2022-12-29T00:59:24;99664.22;;;9.19;51.01
68654;BME280;55636;51.108;13.622;2022-12-29T01:00:26;99659.53;;;9.19;51.02
68654;BME280;55636;51.108;13.622;2022-12-29T01:01:30;99669.44;;;9.20;51.15
68654;BME280;55636;51.108;13.622;2022-12-29T01:02:33;99659.25;;;9.21;51.28
68654;BME280;55636;51.108;13.622;2022-12-29T01:03:39;99663.66;;;9.22;51.18
68654;BME280;55636;51.108;13.622;2022-12-29T01:04:41;99659.81;;;9.23;51.35
68654;BME280;55636;51.108;13.622;2022-12-29T01:05:43;99662.28;;;9.25;51.33
68654;BME280;55636;51.108;13.622;2022-12-29T01:06:47;99660.38;;;9.25;51.32
68654;BME280;55636;51.108;13.622;2022-12-29T01:07:50;99663.97;;;9.26;51.37
68654;BME280;55636;51.108;13.622;2022-12-29T01:08:52;99666.44;;;9.27;51.38
68654;BME280;55636;51.108;13.622;2022-12-29T01:10:17;99651.84;;;9.27;51.44
68654;BME280;55636;51.108;13.622;2022-12-29T01:11:20;99655.69;;;9.26;51.40
68654;BME280;55636;51.108;13.622;2022-12-29T01:12:22;99665.63;;;9.27;51.56
68654;BME280;55636;51.108;13.622;2022-12-29T01:13:44;99661.78;;;9.28;51.40
68654;BME280;55636;51.108;13.622;2022-12-29T01:14:46;99666.44;;;9.27;51.57
68654;BME280;55636;51.108;13.622;2022-12-29T01:15:52;99660.94;;;9.27;51.87
68654;BME280;55636;51.108;13.622;2022-12-29T01:16:55;99662.31;;;9.30;51.84
68654;BME280;55636;51.108;13.622;2022-12-29T01:17:59;99668.69;;;9.30;51.77
68654;BME280;55636;51.108;13.622;2022-12-29T01:19:01;99667.56;;;9.31;51.78
68654;BME280;55636;51.108;13.622;2022-12-29T01:20:04;99671.16;;;9.32;51.98
68654;BME280;55636;51.108;13.622;2022-12-29T01:21:06;99667.31;;;9.33;52.06
68654;BME280;55636;51.108;13.622;2022-12-29T01:22:09;99670.06;;;9.33;51.88
68654;BME280;55636;51.108;13.622;2022-12-29T01:23:11;99670.06;;;9.33;52.09
68654;BME280;55636;51.108;13.622;2022-12-29T01:24:15;99665.38;;;9.33;52.11
68654;BME280;55636;51.108;13.622;2022-12-29T01:25:19;99659.88;;;9.33;52.09
68654;BME280;55636;51.108;13.622;2022-12-29T01:26:21;99668.94;;;9.34;52.46
68654;BME280;55636;51.108;13.622;2022-12-29T01:27:26;99664.56;;;9.33;52.25
68654;BME280;55636;51.108;13.622;2022-12-29T01:28:28;99661.81;;;9.33;52.15
68654;BME280;55636;51.108;13.622;2022-12-29T01:29:30;99657.94;;;9.34;52.32
68654;BME280;55636;51.108;13.622;2022-12-29T01:30:33;99666.19;;;9.34;52.47
68654;BME280;55636;51.108;13.622;2022-12-29T01:31:35;99659.88;;;9.33;52.42
68654;BME280;55636;51.108;13.622;2022-12-29T01:32:37;99668.72;;;9.35;52.53
68654;BME280;55636;51.108;13.622;2022-12-29T01:33:40;99667.03;;;9.34;52.65
68654;BME280;55636;51.108;13.622;2022-12-29T01:34:42;99669.81;;;9.34;52.63
68654;BME280;55636;51.108;13.622;2022-12-29T01:35:44;99665.09;;;9.35;52.63
68654;BME280;55636;51.108;13.622;2022-12-29T01:36:49;99668.72;;;9.35;52.57
68654;BME280;55636;51.108;13.622;2022-12-29T01:37:51;99666.19;;;9.34;52.77
68654;BME280;55636;51.108;13.622;2022-12-29T01:38:54;99678.88;;;9.35;52.84
68654;BME280;55636;51.108;13.622;2022-12-29T01:39:56;99671.47;;;9.35;52.78
68654;BME280;55636;51.108;13.622;2022-12-29T01:40:59;99667.59;;;9.36;52.89
68654;BME280;55636;51.108;13.622;2022-12-29T01:42:01;99669.53;;;9.36;52.88
68654;BME280;55636;51.108;13.622;2022-12-29T01:43:07;99670.63;;;9.35;52.93
68654;BME280;55636;51.108;13.622;2022-12-29T01:46:03;99659.31;;;9.36;53.14
68654;BME280;55636;51.108;13.622;2022-12-29T01:47:07;99662.06;;;9.36;53.13
68654;BME280;55636;51.108;13.622;2022-12-29T01:48:11;99659.31;;;9.36;53.35
68654;BME280;55636;51.108;13.622;2022-12-29T01:49:20;99657.41;;;9.37;53.56
68654;BME280;55636;51.108;13.622;2022-12-29T01:50:30;99659.31;;;9.36;53.42
68654;BME280;55636;51.108;13.622;2022-12-29T01:51:58;99649.66;;;9.34;53.53
68654;BME280;55636;51.108;13.622;2022-12-29T01:53:08;99660.44;;;9.35;53.64
68654;BME280;55636;51.108;13.622;2022-12-29T01:54:16;99656.84;;;9.35;53.39
68654;BME280;55636;51.108;13.622;2022-12-29T01:55:20;99663.19;;;9.35;53.50
68654;BME280;55636;51.108;13.622;2022-12-29T01:56:23;99659.59;;;9.35;53.73
68654;BME280;55636;51.108;13.622;2022-12-29T01:57:29;99657.69;;;9.35;53.95
68654;BME280;55636;51.108;13.622;2022-12-29T01:58:37;99653.25;;;9.34;53.83
68654;BME280;55636;51.108;13.622;2022-12-29T02:00:06;99648.84;;;9.33;54.04
68654;BME280;55636;51.108;13.622;2022-12-29T02:01:21;99646.88;;;9.29;53.92
68654;BME280;55636;51.108;13.622;2022-12-29T02:02:24;99648.53;;;9.30;54.16
68654;BME280;55636;51.108;13.622;2022-12-29T02:03:28;99648.53;;;9.30;54.22
68654;BME280;55636;51.108;13.622;2022-12-29T02:04:35;99651.31;;;9.30;54.20
68654;BME280;55636;51.108;13.622;2022-12-29T02:05:59;99645.78;;;9.30;54.10
68654;BME280;55636;51.108;13.622;2022-12-29T02:07:08;99634.75;;;9.30;54.42
68654;BME280;55636;51.108;13.622;2022-12-29T02:08:13;99635.03;;;9.28;54.21
68654;BME280;55636;51.108;13.622;2022-12-29T02:09:15;99632.56;;;9.27;54.35
68654;BME280;55636;51.108;13.622;2022-12-29T02:10:21;99630.63;;;9.27;54.39
68654;BME280;55636;51.108;13.622;2022-12-29T02:11:26;99629.53;;;9.28;54.53
68654;BME280;55636;51.108;13.622;2022-12-29T02:12:31;99627.88;;;9.27;54.66
68654;BME280;55636;51.108;13.622;2022-12-29T02:13:33;99627.88;;;9.27;54.40
68654;BME280;55636;51.108;13.622;2022-12-29T02:14:36;99627.03;;;9.27;54.49
68654;BME280;55636;51.108;13.622;2022-12-29T02:16:00;99629.81;;;9.27;54.31
68654;BME280;55636;51.108;13.622;2022-12-29T02:17:23;99621.53;;;9.27;54.40
68654;BME280;55636;51.108;13.622;2022-12-29T02:18:43;99621.53;;;9.27;54.53
68654;BME280;55636;51.108;13.622;2022-12-29T02:20:18;99624.28;;;9.27;54.38
68654;BME280;55636;51.108;13.622;2022-12-29T02:23:00;99628.72;;;9.28;54.37
68654;BME280;55636;51.108;13.622;2022-12-29T02:29:08;99626.50;;;9.30;54.71
68654;BME280;55636;51.108;13.622;2022-12-29T02:35:43;99614.38;;;9.31;54.58
68654;BME280;55636;51.108;13.622;2022-12-29T02:37:03;99605.28;;;9.30;54.48
68654;BME280;55636;51.108;13.622;2022-12-29T02:38:46;99606.94;;;9.31;54.64
68654;BME280;55636;51.108;13.622;2022-12-29T02:40:06;99606.94;;;9.31;54.44
68654;BME280;55636;51.108;13.622;2022-12-29T02:42:37;99611.34;;;9.32;54.65
68654;BME280;55636;51.108;13.622;2022-12-29T02:45:13;99608.31;;;9.34;54.51
68654;BME280;55636;51.108;13.622;2022-12-29T02:46:29;99606.41;;;9.34;54.52
68654;BME280;55636;51.108;13.622;2022-12-29T02:47:39;99609.97;;;9.35;54.54
68654;BME280;55636;51.108;13.622;2022-12-29T02:49:25;99604.47;;;9.35;54.52
68654;BME280;55636;51.108;13.622;2022-12-29T02:50:35;99608.06;;;9.35;54.46
68654;BME280;55636;51.108;13.622;2022-12-29T02:51:54;99608.88;;;9.36;54.65
68654;BME280;55636;51.108;13.622;2022-12-29T02:53:01;99604.19;;;9.36;54.66
68654;BME280;55636;51.108;13.622;2022-12-29T02:54:05;99613.31;;;9.37;54.67
68654;BME280;55636;51.108;13.622;2022-12-29T02:55:26;99605.84;;;9.37;54.70
68654;BME280;55636;51.108;13.622;2022-12-29T02:56:28;99605.84;;;9.37;54.73
68654;BME280;55636;51.108;13.622;2022-12-29T02:57:34;99600.06;;;9.39;54.75
68654;BME280;55636;51.108;13.622;2022-12-29T02:58:37;99607.50;;;9.38;54.82
68654;BME280;55636;51.108;13.622;2022-12-29T02:59:41;99611.94;;;9.40;54.67
68654;BME280;55636;51.108;13.622;2022-12-29T03:02:50;99608.91;;;9.41;54.46
68654;BME280;55636;51.108;13.622;2022-12-29T03:04:31;99607.81;;;9.42;54.39
68654;BME280;55636;51.108;13.622;2022-12-29T03:06:10;99605.88;;;9.43;54.39
68654;BME280;55636;51.108;13.622;2022-12-29T03:07:19;99604.50;;;9.45;54.47
68654;BME280;55636;51.108;13.622;2022-12-29T03:08:49;99601.75;;;9.45;54.42
68654;BME280;55636;51.108;13.622;2022-12-29T03:11:04;99598.97;;;9.45;54.48
68654;BME280;55636;51.108;13.622;2022-12-29T03:12:15;99600.66;;;9.46;54.35
68654;BME280;55636;51.108;13.622;2022-12-29T03:13:29;99594.03;;;9.47;54.52
68654;BME280;55636;51.108;13.622;2022-12-29T03:15:02;99599.28;;;9.49;54.64
68654;BME280;55636;51.108;13.622;2022-12-29T03:16:45;99591.81;;;9.49;54.34
68654;BME280;55636;51.108;13.622;2022-12-29T03:18:15;99596.25;;;9.50;54.41
68654;BME280;55636;51.108;13.622;2022-12-29T03:19:44;99588.25;;;9.49;54.31
68654;BME280;55636;51.108;13.622;2022-12-29T03:20:53;99580.50;;;9.51;54.22
68654;BME280;55636;51.108;13.622;2022-12-29T03:22:04;99583.84;;;9.53;54.17
68654;BME280;55636;51.108;13.622;2022-12-29T03:23:36;99573.63;;;9.53;54.27
68654;BME280;55636;51.108;13.622;2022-12-29T03:24:44;99576.38;;;9.53;54.07
68654;BME280;55636;51.108;13.622;2022-12-29T03:26:10;99568.13;;;9.53;54.03
68654;BME280;55636;51.108;13.622;2022-12-29T03:27:19;99573.09;;;9.57;54.01
68654;BME280;55636;51.108;13.622;2022-12-29T03:28:25;99570.34;;;9.57;54.01
68654;BME280;55636;51.108;13.622;2022-12-29T03:29:33;99571.16;;;9.57;54.02
68654;BME280;55636;51.108;13.622;2022-12-29T03:30:38;99572.81;;;9.58;53.85
68654;BME280;55636;51.108;13.622;2022-12-29T03:31:42;99563.47;;;9.59;54.14
68654;BME280;55636;51.108;13.622;2022-12-29T03:33:12;99565.13;;;9.60;54.11
68654;BME280;55636;51.108;13.622;2022-12-29T03:34:20;99560.13;;;9.62;54.10
68654;BME280;55636;51.108;13.622;2022-12-29T03:35:26;99557.38;;;9.62;53.88
68654;BME280;55636;51.108;13.622;2022-12-29T03:36:42;99557.09;;;9.64;54.04
68654;BME280;55636;51.108;13.622;2022-12-29T03:37:57;99559.63;;;9.65;53.86
68654;BME280;55636;51.108;13.622;2022-12-29T03:39:12;99557.38;;;9.67;53.95
68654;BME280;55636;51.108;13.622;2022-12-29T03:40:16;99560.97;;;9.68;53.87
68654;BME280;55636;51.108;13.622;2022-12-29T03:41:24;99557.38;;;9.67;53.92
68654;BME280;55636;51.108;13.622;2022-12-29T03:42:34;99559.88;;;9.69;53.82
68654;BME280;55636;51.108;13.622;2022-12-29T03:43:37;99554.91;;;9.71;53.83
68654;BME280;55636;51.108;13.622;2022-12-29T03:44:42;99549.13;;;9.73;53.87
68654;BME280;55636;51.108;13.622;2022-12-29T03:45:47;99556.03;;;9.75;53.78
68654;BME280;55636;51.108;13.622;2022-12-29T03:46:49;99553.25;;;9.75;53.61
68654;BME280;55636;51.108;13.622;2022-12-29T03:47:53;99551.31;;;9.76;53.62
68654;BME280;55636;51.108;13.622;2022-12-29T03:48:56;99562.91;;;9.78;53.54
68654;BME280;55636;51.108;13.622;2022-12-29T03:49:58;99546.94;;;9.80;53.66
68654;BME280;55636;51.108;13.622;2022-12-29T03:51:00;99553.00;;;9.82;53.62
68654;BME280;55636;51.108;13.622;2022-12-29T03:52:03;99555.47;;;9.83;53.47
68654;BME280;55636;51.108;13.622;2022-12-29T03:53:09;99557.97;;;9.85;53.59
68654;BME280;55636;51.108;13.622;2022-12-29T03:54:13;99554.94;;;9.86;53.66
68654;BME280;55636;51.108;13.622;2022-12-29T03:55:15;99553.56;;;9.89;53.44
68654;BME280;55636;51.108;13.622;2022-12-29T03:56:19;99546.91;;;9.90;53.63
68654;BME280;55636;51.108;13.622;2022-12-29T03:57:23;99562.38;;;9.91;53.43
68654;BME280;55636;51.108;13.622;2022-12-29T03:58:33;99556.56;;;9.93;53.43
68654;BME280;55636;51.108;13.622;2022-12-29T03:59:43;99555.47;;;9.94;53.39
68654;BME280;55636;51.108;13.622;2022-12-29T04:00:46;99552.19;;;9.97;53.39
68654;BME280;55636;51.108;13.622;2022-12-29T04:01:48;99548.28;;;9.98;53.31
68654;BME280;55636;51.108;13.622;2022-12-29T04:02:51;99552.44;;;10.00;53.20
68654;BME280;55636;51.108;13.622;2022-12-29T04:04:14;99548.56;;;10.01;53.18
68654;BME280;55636;51.108;13.622;2022-12-29T04:05:18;99545.53;;;10.03;53.04
68654;BME280;55636;51.108;13.622;2022-12-29T04:06:22;99545.00;;;10.06;53.11
68654;BME280;55636;51.108;13.622;2022-12-29T04:07:32;99551.34;;;10.07;53.22
68654;BME280;55636;51.108;13.622;2022-12-29T04:08:36;99555.75;;;10.08;53.16
68654;BME280;55636;51.108;13.622;2022-12-29T04:09:40;99549.94;;;10.09;53.27
68654;BME280;55636;51.108;13.622;2022-12-29T04:10:45;99541.38;;;10.11;53.22
68654;BME280;55636;51.108;13.622;2022-12-29T04:11:52;99552.16;;;10.12;53.05
68654;BME280;55636;51.108;13.622;2022-12-29T04:12:55;99545.53;;;10.13;53.10
68654;BME280;55636;51.108;13.622;2022-12-29T04:13:59;99548.84;;;10.15;53.30
68654;BME280;55636;51.108;13.622;2022-12-29T04:15:02;99549.66;;;10.16;53.16
68654;BME280;55636;51.108;13.622;2022-12-29T04:16:05;99545.84;;;10.17;53.01
68654;BME280;55636;51.108;13.622;2022-12-29T04:17:08;99549.41;;;10.17;53.06
68654;BME280;55636;51.108;13.622;2022-12-29T04:18:13;99545.56;;;10.18;53.10
68654;BME280;55636;51.108;13.622;2022-12-29T04:19:15;99538.94;;;10.19;53.07
68654;BME280;55636;51.108;13.622;2022-12-29T04:20:19;99546.13;;;10.20;53.17
68654;BME280;55636;51.108;13.622;2022-12-29T04:21:41;99548.59;;;10.22;53.01
68654;BME280;55636;51.108;13.622;2022-12-29T04:22:44;99544.72;;;10.23;52.91
68654;BME280;55636;51.108;13.622;2022-12-29T04:23:47;99546.13;;;10.26;52.94
68654;BME280;55636;51.108;13.622;2022-12-29T04:24:51;99539.50;;;10.27;53.10
68654;BME280;55636;51.108;13.622;2022-12-29T04:25:53;99554.94;;;10.28;53.07
68654;BME280;55636;51.108;13.622;2022-12-29T04:26:56;99551.91;;;10.29;52.99
68654;BME280;55636;51.108;13.622;2022-12-29T04:28:24;99546.38;;;10.29;52.93
68654;BME280;55636;51.108;13.622;2022-12-29T04:29:47;99541.13;;;10.33;52.90
68654;BME280;55636;51.108;13.622;2022-12-29T04:31:10;99546.34;;;10.34;52.88
68654;BME280;55636;51.108;13.622;2022-12-29T04:32:15;99536.16;;;10.35;52.81
68654;BME280;55636;51.108;13.622;2022-12-29T04:33:23;99531.44;;;10.35;52.88
68654;BME280;55636;51.108;13.622;2022-12-29T04:34:27;99530.34;;;10.36;52.82
68654;BME280;55636;51.108;13.622;2022-12-29T04:35:29;99533.09;;;10.36;53.00
68654;BME280;55636;51.108;13.622;2022-12-29T04:36:32;99532.00;;;10.38;52.97
68654;BME280;55636;51.108;13.622;2022-12-29T04:37:35;99543.56;;;10.40;52.96
68654;BME280;55636;51.108;13.622;2022-12-29T04:38:37;99538.06;;;10.40;52.97
68654;BME280;55636;51.108;13.622;2022-12-29T04:39:40;99540.56;;;10.41;52.98
68654;BME280;55636;51.108;13.622;2022-12-29T04:40:43;99532.00;;;10.43;53.12
68654;BME280;55636;51.108;13.622;2022-12-29T04:41:46;99531.72;;;10.44;53.00
68654;BME280;55636;51.108;13.622;2022-12-29T04:42:53;99526.19;;;10.44;53.03
68654;BME280;55636;51.108;13.622;2022-12-29T04:43:56;99522.31;;;10.45;52.92
68654;BME280;55636;51.108;13.622;2022-12-29T04:44:58;99514.84;;;10.46;53.01
68654;BME280;55636;51.108;13.622;2022-12-29T04:46:26;99529.22;;;10.48;52.95
68654;BME280;55636;51.108;13.622;2022-12-29T04:47:39;99525.38;;;10.49;53.02
68654;BME280;55636;51.108;13.622;2022-12-29T04:48:59;99531.69;;;10.49;53.09
68654;BME280;55636;51.108;13.622;2022-12-29T04:50:29;99540.81;;;10.50;53.00
68654;BME280;55636;51.108;13.622;2022-12-29T04:51:56;99538.31;;;10.53;53.10
68654;BME280;55636;51.108;13.622;2022-12-29T04:52:59;99535.56;;;10.53;53.24
68654;BME280;55636;51.108;13.622;2022-12-29T04:54:01;99540.78;;;10.55;53.32
68654;BME280;55636;51.108;13.622;2022-12-29T04:55:05;99539.69;;;10.56;53.44
68654;BME280;55636;51.108;13.622;2022-12-29T04:56:08;99534.16;;;10.56;53.47
68654;BME280;55636;51.108;13.622;2022-12-29T04:57:11;99535.00;;;10.57;53.80
68654;BME280;55636;51.108;13.622;2022-12-29T04:58:14;99528.34;;;10.58;53.77
68654;BME280;55636;51.108;13.622;2022-12-29T04:59:23;99533.88;;;10.58;53.85
68654;BME280;55636;51.108;13.622;2022-12-29T05:00:29;99525.59;;;10.58;53.92
68654;BME280;55636;51.108;13.622;2022-12-29T05:01:31;99531.13;;;10.58;53.82
68654;BME280;55636;51.108;13.622;2022-12-29T05:02:36;99531.97;;;10.58;53.86
68654;BME280;55636;51.108;13.622;2022-12-29T05:03:38;99533.59;;;10.59;53.77
68654;BME280;55636;51.108;13.622;2022-12-29T05:04:41;99536.34;;;10.59;53.62
68654;BME280;55636;51.108;13.622;2022-12-29T05:05:43;99541.88;;;10.59;53.83
68654;BME280;55636;51.108;13.622;2022-12-29T05:06:46;99527.25;;;10.59;53.71
68654;BME280;55636;51.108;13.622;2022-12-29T05:07:48;99534.44;;;10.60;53.74
68654;BME280;55636;51.108;13.622;2022-12-29T05:08:51;99525.31;;;10.59;53.77
68654;BME280;55636;51.108;13.622;2022-12-29T05:09:54;99535.81;;;10.62;53.63
68654;BME280;55636;51.108;13.622;2022-12-29T05:10:56;99532.50;;;10.60;53.55
68654;BME280;55636;51.108;13.622;2022-12-29T05:11:59;99546.84;;;10.62;53.70
68654;BME280;55636;51.108;13.622;2022-12-29T05:13:02;99522.53;;;10.64;53.34
68654;BME280;55636;51.108;13.622;2022-12-29T05:14:06;99523.38;;;10.65;53.34
68654;BME280;55636;51.108;13.622;2022-12-29T05:15:10;99532.19;;;10.62;53.42
68654;BME280;55636;51.108;13.622;2022-12-29T05:16:13;99508.47;;;10.61;53.27
68654;BME280;55636;51.108;13.622;2022-12-29T05:17:15;99518.13;;;10.63;53.38
68654;BME280;55636;51.108;13.622;2022-12-29T05:18:20;99505.16;;;10.64;53.23
68654;BME280;55636;51.108;13.622;2022-12-29T05:19:23;99510.09;;;10.62;53.09
68654;BME280;55636;51.108;13.622;2022-12-29T05:20:28;99520.91;;;10.58;53.18
68654;BME280;55636;51.108;13.622;2022-12-29T05:21:31;99519.53;;;10.61;53.22
68654;BME280;55636;51.108;13.622;2022-12-29T05:22:34;99510.41;;;10.60;53.12
68654;BME280;55636;51.108;13.622;2022-12-29T05:23:37;99514.00;;;10.61;53.06
68654;BME280;55636;51.108;13.622;2022-12-29T05:24:43;99518.41;;;10.62;53.29
68654;BME280;55636;51.108;13.622;2022-12-29T05:25:45;99525.06;;;10.61;53.25
68654;BME280;55636;51.108;13.622;2022-12-29T05:26:52;99505.16;;;10.59;53.16
68654;BME280;55636;51.108;13.622;2022-12-29T05:28:08;99525.88;;;10.61;53.19
68654;BME280;55636;51.108;13.622;2022-12-29T05:29:25;99533.34;;;10.61;53.03
68654;BME280;55636;51.108;13.622;2022-12-29T05:30:28;99538.00;;;10.60;53.12
68654;BME280;55636;51.108;13.622;2022-12-29T05:31:34;99523.91;;;10.62;53.33
68654;BME280;55636;51.108;13.622;2022-12-29T05:32:39;99528.91;;;10.60;53.15
68654;BME280;55636;51.108;13.622;2022-12-29T05:33:42;99533.59;;;10.59;53.11
68654;BME280;55636;51.108;13.622;2022-12-29T05:34:44;99525.06;;;10.61;53.31
68654;BME280;55636;51.108;13.622;2022-12-29T05:35:46;99534.97;;;10.62;53.16
68654;BME280;55636;51.108;13.622;2022-12-29T05:36:52;99541.88;;;10.64;53.24
68654;BME280;55636;51.108;13.622;2022-12-29T05:37:54;99538.28;;;10.64;53.18
68654;BME280;55636;51.108;13.622;2022-12-29T05:38:56;99548.22;;;10.65;53.11
68654;BME280;55636;51.108;13.622;2022-12-29T05:39:59;99552.09;;;10.64;53.08
68654;BME280;55636;51.108;13.622;2022-12-29T05:41:02;99546.28;;;10.65;53.18
68654;BME280;55636;51.108;13.622;2022-12-29T05:42:34;99549.91;;;10.66;52.97
68654;BME280;55636;51.108;13.622;2022-12-29T05:44:14;99555.13;;;10.67;52.96
68654;BME280;55636;51.108;13.622;2022-12-29T05:45:42;99551.53;;;10.67;52.98
68654;BME280;55636;51.108;13.622;2022-12-29T05:47:01;99544.91;;;10.68;52.84
68654;BME280;55636;51.108;13.622;2022-12-29T05:48:21;99547.66;;;10.68;52.99
68654;BME280;55636;51.108;13.622;2022-12-29T05:50:02;99547.66;;;10.68;52.94
68654;BME280;55636;51.108;13.622;2022-12-29T05:51:28;99547.38;;;10.69;52.78
68654;BME280;55636;51.108;13.622;2022-12-29T05:52:33;99554.03;;;10.68;52.73
68654;BME280;55636;51.108;13.622;2022-12-29T05:53:35;99543.78;;;10.69;52.88
68654;BME280;55636;51.108;13.622;2022-12-29T05:54:37;99545.75;;;10.68;52.95
68654;BME280;55636;51.108;13.622;2022-12-29T05:55:47;99553.75;;;10.70;52.85
68654;BME280;55636;51.108;13.622;2022-12-29T05:56:51;99557.31;;;10.70;53.04
68654;BME280;55636;51.108;13.622;2022-12-29T05:57:53;99563.69;;;10.71;52.80
68654;BME280;55636;51.108;13.622;2022-12-29T05:58:55;99566.44;;;10.71;53.01
68654;BME280;55636;51.108;13.622;2022-12-29T05:59:58;99564.22;;;10.73;52.83
68654;BME280;55636;51.108;13.622;2022-12-29T06:01:00;99567.25;;;10.72;52.84
68654;BME280;55636;51.108;13.622;2022-12-29T06:02:03;99568.06;;;10.72;52.74
68654;BME280;55636;51.108;13.622;2022-12-29T06:03:06;99567.81;;;10.74;52.71
68654;BME280;55636;51.108;13.622;2022-12-29T06:04:08;99569.75;;;10.73;52.85
68654;BME280;55636;51.108;13.622;2022-12-29T06:05:11;99575.25;;;10.73;52.68
68654;BME280;55636;51.108;13.622;2022-12-29T06:06:14;99576.38;;;10.72;52.78
68654;BME280;55636;51.108;13.622;2022-12-29T06:07:19;99576.13;;;10.74;52.70
68654;BME280;55636;51.108;13.622;2022-12-29T06:08:22;99569.44;;;10.75;52.85
68654;BME280;55636;51.108;13.622;2022-12-29T06:09:27;99566.69;;;10.75;52.88
68654;BME280;55636;51.108;13.622;2022-12-29T06:10:38;99570.00;;;10.77;52.74
68654;BME280;55636;51.108;13.622;2022-12-29T06:11:40;99562.53;;;10.77;52.71
68654;BME280;55636;51.108;13.622;2022-12-29T06:12:43;99557.00;;;10.77;52.70
68654;BME280;55636;51.108;13.622;2022-12-29T06:13:45;99565.88;;;10.79;52.80
68654;BME280;55636;51.108;13.622;2022-12-29T06:14:48;99552.56;;;10.81;52.63
68654;BME280;55636;51.108;13.622;2022-12-29T06:15:50;99557.28;;;10.81;52.68
68654;BME280;55636;51.108;13.622;2022-12-29T06:16:53;99556.19;;;10.82;52.78
68654;BME280;55636;51.108;13.622;2022-12-29T06:17:56;99556.19;;;10.82;52.76
68654;BME280;55636;51.108;13.622;2022-12-29T06:18:58;99562.25;;;10.84;52.77
68654;BME280;55636;51.108;13.622;2022-12-29T06:20:01;99553.94;;;10.84;52.59
68654;BME280;55636;51.108;13.622;2022-12-29T06:21:04;99558.38;;;10.85;52.77
68654;BME280;55636;51.108;13.622;2022-12-29T06:22:08;99549.28;;;10.84;52.54
68654;BME280;55636;51.108;13.622;2022-12-29T06:23:10;99550.09;;;10.85;52.43